Airfield :
LOGIN :

Register | Disclaimer

   EN    FR    IT 

 










Legend :    VFR   Marginal VFR   IFR   Intensive IFR   Very Intensive IFR
Visi :
Ceiling :
>= 8 km
>= 3000ft
5 to 8 km
1000 to 3000 ft
1500m to 5 km
500 to 1000 ft
800 to 1500m
200 to 500 ft
< 800m
< 200 ft
Symbols :   Thunderstorms  Fog  Heavy snow  Heavy precipitations  Wind > 20 kt
SIGMETs :     Misc.  Thunderstorms  Icing  Turbulence  Mountain Waves  Volcanic Ashes






- Airport Elevation : 267 ft


EGDR - Culdrose Navy

CURRENT METAR :
  • 021450Z 24016KT 9999 -DZ SCT010 BKN015 10/08 Q1031 TEMPO 6000 -DZ SCT006 RMK GRN TEMPO YLO1

EXPIRED METARs :
  • 021420Z 24016G26KT 9999 FEW010 SCT015 BKN020 10/09 Q1031 TEMPO 6000 -DZ SCT006 RMK WHT TEMPO YLO1
  • 021350Z 24013KT 9999 SCT010 BKN020 OVC025 10/09 Q1031 TEMPO 6000 -DZ SCT006 RMK GRN TEMPO YLO1
  • 021320Z 24013G23KT 9999 SCT010 BKN020 10/09 Q1031 TEMPO 4000 -DZ SCT004 RMK GRN TEMPO YLO2
  • 021250Z 23015KT 8000 -DZ FEW007 SCT010 BKN020 10/09 Q1031 TEMPO 4000 -DZ SCT004 RMK GRN TEMPO YLO2
  • 021220Z 24015KT 9999 VCSH FEW008 SCT010 BKN020 10/09 Q1032 TEMPO 4000 -DZ SCT004 RMK GRN TEMPO YLO2

TAF TAF EGDR
Valid from the 02 at 15:00 until the 03 at 00:00 UTC


021406Z 0215/0224 25015KT 9999 FEW008 SCT015
TEMPO 0215/0224 6000 -DZ FEW004 SCT006
PROB40
TEMPO 0215/0224 3000 BR SCT004



MET'MAP, your aeronautical weather chart ! - Copyright ORBIFLY December 2007 - Disclaimer

ORBIFLY MET'MAP TEAM :

Programming & Development : Alexandra Zaïnal
Original concept : Baudouin d'Aumeries
Technical & hardware support : Manuel Goepfert
Assistance : Marc-Olivier Méhu




SOURCES & CREDITS :

   NOAA